PWSweather.com
Personal Weather Stations
Station Observations
CW9610
Rural Jefferson County, Mclouth, KS 66054

Rural Jefferson CountyMclouth, KS 66054

Lat: 39.1947, Lon: -95.238

Elevation: 1151

Station Type: Davis VP2

http://mclwx.info

Latest ConditionsUpdated 9:30:01 PM CDT Tuesday, Jul 7, 2015
Currently Today's Max Today's Min Today's Average
Temperature 66.2°F19.0°C 69.5°F20.8°C 60.7°F15.9°C 65.3°F18.5°C
Dew Point 61.6°F16.4°C 64.2°F17.9°C 57.0°F13.9°C 60.1°F15.6°C
Winds 1.0 mph NE1.6 kmh NE 13.0 mph NE20.9 kmh NE - 4.4 mph 7.1 kmh
Wind Gusts 3.0 mph4.8 kmh 23.0 mph37.0 kmh - -
Humidity 85% 92% 72% 84%
Pressure 30.00 in1015.9 mb 30.03 in1016.9 mb 29.88 in1011.9 mb -
Precipitation - 0.86 in21.8 mm - -
Hour Temp Dew Point Humidity Winds Wind Gusts Pressure Precip Precip Rate Daily Precip Total
09:30 PM 66.2°F19.0°C 61.6°F16.4°C 85% 1.0 mph NE1.6 kmh NE 3.0 mph4.8 kmh 30.00 in1015.9 mb 0.00 in0.0 mm 0.00 in0.0 mm 0.86 in21.8 mm
09:15 PM 66.3°F19.1°C 61.7°F16.5°C 85% Calm Calm 1.0 mph1.6 kmh 29.99 in1015.6 mb 0.00 in0.0 mm 0.00 in0.0 mm 0.86 in21.8 mm
09:00 PM 66.7°F19.3°C 61.7°F16.5°C 84% Calm Calm -- 29.99 in1015.6 mb 0.00 in0.0 mm 0.00 in0.0 mm 0.86 in21.8 mm
08:45 PM 67.1°F19.5°C 61.8°F16.6°C 83% Calm Calm 1.0 mph1.6 kmh 29.99 in1015.6 mb 0.00 in0.0 mm 0.00 in0.0 mm 0.86 in21.8 mm
08:30 PM 67.4°F19.7°C 62.1°F16.7°C 83% Calm Calm 1.0 mph1.6 kmh 29.99 in1015.6 mb 0.00 in0.0 mm 0.00 in0.0 mm 0.86 in21.8 mm
08:15 PM 67.5°F19.7°C 62.2°F16.8°C 83% Calm Calm 1.0 mph1.6 kmh 30.00 in1015.9 mb 0.00 in0.0 mm 0.00 in0.0 mm 0.86 in21.8 mm
08:00 PM 67.8°F19.9°C 61.8°F16.6°C 81% Calm Calm 1.0 mph1.6 kmh 29.99 in1015.6 mb 0.00 in0.0 mm 0.00 in0.0 mm 0.86 in21.8 mm
07:45 PM 68.0°F20.0°C 61.6°F16.4°C 80% Calm Calm -- 29.99 in1015.6 mb 0.00 in0.0 mm 0.00 in0.0 mm 0.86 in21.8 mm
07:30 PM 68.2°F20.1°C 61.4°F16.3°C 79% 1.0 mph NE1.6 kmh NE 1.0 mph1.6 kmh 29.99 in1015.6 mb 0.00 in0.0 mm 0.00 in0.0 mm 0.86 in21.8 mm
07:15 PM 68.4°F20.2°C 61.3°F16.3°C 78% Calm Calm 2.0 mph3.2 kmh 29.99 in1015.6 mb 0.00 in0.0 mm 0.00 in0.0 mm 0.86 in21.8 mm
07:00 PM 68.7°F20.4°C 61.6°F16.4°C 78% Calm Calm 1.0 mph1.6 kmh 29.99 in1015.6 mb 0.00 in0.0 mm 0.00 in0.0 mm 0.86 in21.8 mm
06:45 PM 68.8°F20.4°C 61.7°F16.5°C 78% Calm Calm 3.0 mph4.8 kmh 29.99 in1015.6 mb 0.00 in0.0 mm 0.00 in0.0 mm 0.86 in21.8 mm
06:30 PM 68.6°F20.3°C 61.1°F16.2°C 77% 2.0 mph NE3.2 kmh NE 4.0 mph6.4 kmh 29.99 in1015.6 mb 0.00 in0.0 mm 0.00 in0.0 mm 0.86 in21.8 mm
06:15 PM 68.7°F20.4°C 61.2°F16.2°C 77% 1.0 mph NE1.6 kmh NE 4.0 mph6.4 kmh 29.99 in1015.6 mb 0.00 in0.0 mm 0.00 in0.0 mm 0.86 in21.8 mm
05:45 PM 69.0°F20.6°C 61.5°F16.4°C 77% Calm Calm 3.0 mph4.8 kmh 30.00 in1015.9 mb 0.00 in0.0 mm 0.00 in0.0 mm 0.86 in21.8 mm
05:30 PM 68.9°F20.5°C 61.4°F16.3°C 77% 1.0 mph NE1.6 kmh NE 2.0 mph3.2 kmh 30.01 in1016.3 mb 0.00 in0.0 mm 0.00 in0.0 mm 0.86 in21.8 mm
05:15 PM 68.7°F20.4°C 60.1°F15.6°C 74% 2.0 mph NE3.2 kmh NE 5.0 mph8.0 kmh 30.00 in1015.9 mb 0.00 in0.0 mm 0.00 in0.0 mm 0.86 in21.8 mm
05:00 PM 68.8°F20.4°C 59.8°F15.4°C 73% 3.0 mph NE4.8 kmh NE 8.0 mph12.9 kmh 30.00 in1015.9 mb 0.00 in0.0 mm 0.00 in0.0 mm 0.86 in21.8 mm
04:45 PM 68.9°F20.5°C 60.3°F15.7°C 74% 2.0 mph NE3.2 kmh NE 5.0 mph8.0 kmh 30.00 in1015.9 mb 0.00 in0.0 mm 0.00 in0.0 mm 0.86 in21.8 mm
04:30 PM 68.6°F20.3°C 59.6°F15.3°C 73% 4.0 mph NE6.4 kmh NE 10.0 mph16.1 kmh 30.00 in1015.9 mb 0.00 in0.0 mm 0.00 in0.0 mm 0.86 in21.8 mm
04:15 PM 68.6°F20.3°C 60.0°F15.6°C 74% 3.0 mph N4.8 kmh N 5.0 mph8.0 kmh 30.00 in1015.9 mb 0.00 in0.0 mm 0.00 in0.0 mm 0.86 in21.8 mm
04:00 PM 68.7°F20.4°C 59.7°F15.4°C 73% 5.0 mph NE8.0 kmh NE 8.0 mph12.9 kmh 30.00 in1015.9 mb 0.00 in0.0 mm 0.00 in0.0 mm 0.86 in21.8 mm
03:45 PM 68.9°F20.5°C 59.5°F15.3°C 72% 4.0 mph NNE6.4 kmh NNE 9.0 mph14.5 kmh 30.00 in1015.9 mb 0.00 in0.0 mm 0.00 in0.0 mm 0.86 in21.8 mm
03:30 PM 69.1°F20.6°C 60.1°F15.6°C 73% 5.0 mph NE8.0 kmh NE 11.0 mph17.7 kmh 30.01 in1016.3 mb 0.00 in0.0 mm 0.00 in0.0 mm 0.86 in21.8 mm
03:15 PM 69.5°F20.8°C 60.8°F16.0°C 74% 3.0 mph N4.8 kmh N 7.0 mph11.3 kmh 30.01 in1016.3 mb 0.00 in0.0 mm 0.00 in0.0 mm 0.86 in21.8 mm
03:00 PM 68.8°F20.4°C 60.6°F15.9°C 75% 4.0 mph N6.4 kmh N 6.0 mph9.7 kmh 30.01 in1016.3 mb 0.00 in0.0 mm 0.00 in0.0 mm 0.86 in21.8 mm
02:45 PM 68.0°F20.0°C 59.8°F15.4°C 75% 4.0 mph N6.4 kmh N 7.0 mph11.3 kmh 30.01 in1016.3 mb 0.00 in0.0 mm 0.00 in0.0 mm 0.86 in21.8 mm
02:30 PM 67.9°F19.9°C 60.1°F15.6°C 76% 5.0 mph NNE8.0 kmh NNE 12.0 mph19.3 kmh 30.01 in1016.3 mb 0.00 in0.0 mm 0.00 in0.0 mm 0.86 in21.8 mm
02:15 PM 68.1°F20.1°C 59.9°F15.5°C 75% 5.0 mph N8.0 kmh N 10.0 mph16.1 kmh 30.01 in1016.3 mb 0.00 in0.0 mm 0.00 in0.0 mm 0.86 in21.8 mm
02:00 PM 67.9°F19.9°C 60.1°F15.6°C 76% 6.0 mph NE9.7 kmh NE 12.0 mph19.3 kmh 30.01 in1016.3 mb 0.00 in0.0 mm 0.00 in0.0 mm 0.86 in21.8 mm
01:45 PM 68.5°F20.3°C 60.3°F15.7°C 75% 4.0 mph NNE6.4 kmh NNE 13.0 mph20.9 kmh 30.02 in1016.6 mb 0.00 in0.0 mm 0.00 in0.0 mm 0.86 in21.8 mm
01:30 PM 67.9°F19.9°C 60.8°F16.0°C 78% 4.0 mph N6.4 kmh N 8.0 mph12.9 kmh 30.02 in1016.6 mb 0.00 in0.0 mm 0.00 in0.0 mm 0.86 in21.8 mm
01:15 PM 68.0°F20.0°C 60.2°F15.7°C 76% 4.0 mph N6.4 kmh N 7.0 mph11.3 kmh 30.02 in1016.6 mb 0.00 in0.0 mm 0.00 in0.0 mm 0.86 in21.8 mm
01:00 PM 68.0°F20.0°C 59.8°F15.4°C 75% 4.0 mph N6.4 kmh N 8.0 mph12.9 kmh 30.03 in1016.9 mb 0.00 in0.0 mm 0.00 in0.0 mm 0.86 in21.8 mm
12:45 PM 68.4°F20.2°C 60.5°F15.8°C 76% 4.0 mph N6.4 kmh N 10.0 mph16.1 kmh 30.02 in1016.6 mb 0.00 in0.0 mm 0.00 in0.0 mm 0.86 in21.8 mm
12:30 PM 67.9°F19.9°C 60.1°F15.6°C 76% 4.0 mph NE6.4 kmh NE 11.0 mph17.7 kmh 30.02 in1016.6 mb 0.00 in0.0 mm 0.00 in0.0 mm 0.86 in21.8 mm
12:15 PM 67.9°F19.9°C 60.1°F15.6°C 76% 5.0 mph N8.0 kmh N 8.0 mph12.9 kmh 30.03 in1016.9 mb 0.00 in0.0 mm 0.00 in0.0 mm 0.86 in21.8 mm
12:00 PM 67.3°F19.6°C 59.8°F15.4°C 77% 5.0 mph N8.0 kmh N 10.0 mph16.1 kmh 30.03 in1016.9 mb 0.00 in0.0 mm 0.00 in0.0 mm 0.86 in21.8 mm
11:45 AM 67.2°F19.6°C 60.1°F15.6°C 78% 5.0 mph N8.0 kmh N 9.0 mph14.5 kmh 30.02 in1016.6 mb 0.00 in0.0 mm 0.00 in0.0 mm 0.86 in21.8 mm
11:30 AM 67.2°F19.6°C 59.7°F15.4°C 77% 5.0 mph NE8.0 kmh NE 12.0 mph19.3 kmh 30.02 in1016.6 mb 0.00 in0.0 mm 0.00 in0.0 mm 0.86 in21.8 mm
11:15 AM 67.1°F19.5°C 59.6°F15.3°C 77% 5.0 mph NNE8.0 kmh NNE 10.0 mph16.1 kmh 30.02 in1016.6 mb 0.00 in0.0 mm 0.00 in0.0 mm 0.86 in21.8 mm
11:00 AM 67.0°F19.4°C 59.9°F15.5°C 78% 5.0 mph NE8.0 kmh NE 11.0 mph17.7 kmh 30.02 in1016.6 mb 0.00 in0.0 mm 0.00 in0.0 mm 0.86 in21.8 mm
10:45 AM 66.1°F18.9°C 59.7°F15.4°C 80% 5.0 mph N8.0 kmh N 8.0 mph12.9 kmh 30.01 in1016.3 mb 0.00 in0.0 mm 0.00 in0.0 mm 0.86 in21.8 mm
10:30 AM 65.8°F18.8°C 60.2°F15.7°C 82% 4.0 mph N6.4 kmh N 12.0 mph19.3 kmh 30.01 in1016.3 mb 0.00 in0.0 mm 0.00 in0.0 mm 0.86 in21.8 mm
10:15 AM 64.5°F18.1°C 59.2°F15.1°C 83% 4.0 mph N6.4 kmh N 8.0 mph12.9 kmh 30.01 in1016.3 mb 0.00 in0.0 mm 0.00 in0.0 mm 0.86 in21.8 mm
10:00 AM 63.2°F17.3°C 58.6°F14.8°C 85% 4.0 mph N6.4 kmh N 7.0 mph11.3 kmh 30.02 in1016.6 mb 0.00 in0.0 mm 0.00 in0.0 mm 0.86 in21.8 mm
09:45 AM 62.9°F17.2°C 58.0°F14.4°C 84% 5.0 mph NNE8.0 kmh NNE 9.0 mph14.5 kmh 30.01 in1016.3 mb 0.00 in0.0 mm 0.00 in0.0 mm 0.86 in21.8 mm
09:30 AM 62.9°F17.2°C 58.6°F14.8°C 86% 4.0 mph NNE6.4 kmh NNE 10.0 mph16.1 kmh 30.01 in1016.3 mb 0.00 in0.0 mm 0.00 in0.0 mm 0.86 in21.8 mm
09:15 AM 61.6°F16.4°C 57.0°F13.9°C 85% 6.0 mph N9.7 kmh N 12.0 mph19.3 kmh 30.01 in1016.3 mb 0.00 in0.0 mm 0.00 in0.0 mm 0.86 in21.8 mm
09:00 AM 61.5°F16.4°C 57.3°F14.1°C 86% 5.0 mph N8.0 kmh N 11.0 mph17.7 kmh 30.00 in1015.9 mb 0.00 in0.0 mm 0.00 in0.0 mm 0.86 in21.8 mm
08:45 AM 61.8°F16.6°C 57.9°F14.4°C 87% 4.0 mph N6.4 kmh N 6.0 mph9.7 kmh 30.00 in1015.9 mb 0.00 in0.0 mm 0.00 in0.0 mm 0.86 in21.8 mm
08:30 AM 61.5°F16.4°C 57.6°F14.2°C 87% 4.0 mph N6.4 kmh N 9.0 mph14.5 kmh 30.00 in1015.9 mb 0.00 in0.0 mm 0.00 in0.0 mm 0.86 in21.8 mm
08:15 AM 61.3°F16.3°C 57.7°F14.3°C 88% 5.0 mph NNE8.0 kmh NNE 9.0 mph14.5 kmh 29.99 in1015.6 mb 0.00 in0.0 mm 0.00 in0.0 mm 0.86 in21.8 mm
08:00 AM 61.4°F16.3°C 58.1°F14.5°C 89% 5.0 mph N8.0 kmh N 10.0 mph16.1 kmh 29.98 in1015.2 mb 0.00 in0.0 mm 0.00 in0.0 mm 0.86 in21.8 mm
07:45 AM 61.2°F16.2°C 58.2°F14.6°C 90% 5.0 mph NNE8.0 kmh NNE 8.0 mph12.9 kmh 29.98 in1015.2 mb 0.00 in0.0 mm 0.00 in0.0 mm 0.86 in21.8 mm
07:30 AM 61.2°F16.2°C 58.6°F14.8°C 91% 5.0 mph NNE8.0 kmh NNE 9.0 mph14.5 kmh 29.98 in1015.2 mb 0.00 in0.0 mm 0.00 in0.0 mm 0.86 in21.8 mm
07:15 AM 61.5°F16.4°C 58.8°F14.9°C 91% 5.0 mph N8.0 kmh N 11.0 mph17.7 kmh 29.97 in1014.9 mb 0.00 in0.0 mm 0.00 in0.0 mm 0.86 in21.8 mm
07:00 AM 62.9°F17.2°C 60.5°F15.8°C 92% 4.0 mph N6.4 kmh N 7.0 mph11.3 kmh 29.96 in1014.6 mb 0.00 in0.0 mm 0.00 in0.0 mm 0.86 in21.8 mm
06:45 AM 63.4°F17.4°C 61.0°F16.1°C 92% 4.0 mph NNE6.4 kmh NNE 11.0 mph17.7 kmh 29.96 in1014.6 mb 0.00 in0.0 mm 0.00 in0.0 mm 0.86 in21.8 mm
06:30 AM 63.4°F17.4°C 61.0°F16.1°C 92% 4.0 mph N6.4 kmh N 8.0 mph12.9 kmh 29.95 in1014.2 mb 0.00 in0.0 mm 0.00 in0.0 mm 0.86 in21.8 mm
06:15 AM 63.5°F17.5°C 61.1°F16.2°C 92% 4.0 mph NNE6.4 kmh NNE 9.0 mph14.5 kmh 29.94 in1013.9 mb 0.00 in0.0 mm 0.00 in0.0 mm 0.86 in21.8 mm
06:00 AM 63.3°F17.4°C 60.9°F16.1°C 92% 3.0 mph NNE4.8 kmh NNE 7.0 mph11.3 kmh 29.94 in1013.9 mb 0.01 in0.3 mm 0.00 in0.0 mm 0.86 in21.8 mm
05:45 AM 62.7°F17.1°C 60.3°F15.7°C 92% 3.0 mph N4.8 kmh N 5.0 mph8.0 kmh 29.94 in1013.9 mb 0.02 in0.5 mm 0.00 in0.0 mm 0.86 in21.8 mm
05:30 AM 62.2°F16.8°C 59.8°F15.4°C 92% 2.0 mph NE3.2 kmh NE 6.0 mph9.7 kmh 29.94 in1013.9 mb 0.03 in0.8 mm 0.00 in0.0 mm 0.86 in21.8 mm
05:15 AM 62.0°F16.7°C 59.6°F15.3°C 92% 2.0 mph NE3.2 kmh NE 6.0 mph9.7 kmh 29.94 in1013.9 mb 0.04 in1.0 mm 0.00 in0.0 mm 0.86 in21.8 mm
05:00 AM 61.9°F16.6°C 59.5°F15.3°C 92% 2.0 mph NE3.2 kmh NE 4.0 mph6.4 kmh 29.94 in1013.9 mb 0.04 in1.0 mm 0.00 in0.0 mm 0.85 in21.6 mm
04:45 AM 61.7°F16.5°C 59.4°F15.2°C 92% 4.0 mph NE6.4 kmh NE 7.0 mph11.3 kmh 29.94 in1013.9 mb 0.07 in1.8 mm 0.00 in0.0 mm 0.84 in21.3 mm
04:30 AM 61.6°F16.4°C 59.3°F15.2°C 92% 5.0 mph NE8.0 kmh NE 10.0 mph16.1 kmh 29.94 in1013.9 mb 0.09 in2.3 mm 0.00 in0.0 mm 0.83 in21.1 mm
04:15 AM 61.4°F16.3°C 58.7°F14.8°C 91% 8.0 mph NE12.9 kmh NE 12.0 mph19.3 kmh 29.94 in1013.9 mb 0.15 in3.8 mm 0.00 in0.0 mm 0.82 in20.8 mm
04:00 AM 61.3°F16.3°C 58.7°F14.8°C 91% 9.0 mph NE14.5 kmh NE 15.0 mph24.1 kmh 29.93 in1013.5 mb 0.16 in4.1 mm 0.00 in0.0 mm 0.81 in20.6 mm
03:45 AM 61.1°F16.2°C 58.5°F14.7°C 91% 11.0 mph NE17.7 kmh NE 18.0 mph29.0 kmh 29.93 in1013.5 mb 0.18 in4.6 mm 0.00 in0.0 mm 0.77 in19.6 mm
03:30 AM 60.8°F16.0°C 58.2°F14.6°C 91% 12.0 mph NE19.3 kmh NE 20.0 mph32.2 kmh 29.93 in1013.5 mb 0.19 in4.8 mm 0.04 in1.0 mm 0.73 in18.5 mm
03:15 AM 60.7°F15.9°C 58.1°F14.5°C 91% 13.0 mph NE20.9 kmh NE 21.0 mph33.8 kmh 29.93 in1013.5 mb 0.18 in4.6 mm 0.00 in0.0 mm 0.67 in17.0 mm
03:00 AM 61.0°F16.1°C 58.4°F14.7°C 91% 10.0 mph NE16.1 kmh NE 23.0 mph37.0 kmh 29.93 in1013.5 mb 0.19 in4.8 mm 0.00 in0.0 mm 0.64 in16.3 mm
02:45 AM 61.7°F16.5°C 59.4°F15.2°C 92% 8.0 mph NNE12.9 kmh NNE 16.0 mph25.7 kmh 29.93 in1013.5 mb 0.26 in6.6 mm 0.00 in0.0 mm 0.59 in15.0 mm
02:30 AM 61.5°F16.4°C 59.2°F15.1°C 92% 10.0 mph NE16.1 kmh NE 17.0 mph27.4 kmh 29.92 in1013.2 mb 0.31 in7.9 mm 0.00 in0.0 mm 0.54 in13.7 mm
02:15 AM 61.4°F16.3°C 59.1°F15.1°C 92% 10.0 mph NE16.1 kmh NE 20.0 mph32.2 kmh 29.92 in1013.2 mb 0.37 in9.4 mm 0.00 in0.0 mm 0.49 in12.4 mm
02:00 AM 61.7°F16.5°C 59.0°F15.0°C 91% 9.0 mph NNE14.5 kmh NNE 22.0 mph35.4 kmh 29.91 in1012.9 mb 0.41 in10.4 mm 0.09 in2.3 mm 0.45 in11.4 mm
01:45 AM 62.3°F16.8°C 59.6°F15.3°C 91% 8.0 mph NNE12.9 kmh NNE 20.0 mph32.2 kmh 29.91 in1012.9 mb 0.34 in8.6 mm 0.48 in12.2 mm 0.34 in8.6 mm
01:30 AM 63.2°F17.3°C 60.5°F15.8°C 91% 7.0 mph N11.3 kmh N 16.0 mph25.7 kmh 29.90 in1012.5 mb 0.22 in5.6 mm 0.40 in10.2 mm 0.22 in5.6 mm
01:15 AM 64.3°F17.9°C 61.6°F16.4°C 91% 7.0 mph N11.3 kmh N 19.0 mph30.6 kmh 29.90 in1012.5 mb 0.12 in3.0 mm 0.36 in9.1 mm 0.12 in3.0 mm
01:00 AM 65.4°F18.6°C 62.7°F17.1°C 91% 6.0 mph N9.7 kmh N 13.0 mph20.9 kmh 29.90 in1012.5 mb 0.03 in0.8 mm 0.04 in1.0 mm 0.03 in0.8 mm
12:45 AM 66.2°F19.0°C 63.5°F17.5°C 91% 6.0 mph NNW9.7 kmh NNW 10.0 mph16.1 kmh 29.89 in1012.2 mb 0.00 in0.0 mm 0.00 in0.0 mm 0.00 in0.0 mm
12:30 AM 66.6°F19.2°C 63.9°F17.7°C 91% 6.0 mph N9.7 kmh N 11.0 mph17.7 kmh 29.89 in1012.2 mb 0.00 in0.0 mm 0.00 in0.0 mm 0.00 in0.0 mm
12:15 AM 66.6°F19.2°C 64.2°F17.9°C 92% 7.0 mph N11.3 kmh N 15.0 mph24.1 kmh 29.89 in1012.2 mb 0.00 in0.0 mm 0.00 in0.0 mm 0.00 in0.0 mm
12:00 AM 66.6°F19.2°C 64.2°F17.9°C 92% 7.0 mph N11.3 kmh N 14.0 mph22.5 kmh 29.88 in1011.9 mb 0.00 in0.0 mm 0.00 in0.0 mm 0.00 in0.0 mm